Alsville, South Dakota
Current Conditions -  °F | °C
As of 10:53 PM on Thursday 30 Oct 2014 (Local Time) from KATY Reporting Station
Clear Clear  
Wind Chill: 16°   Ceiling: Unl
Heat Index: 26°   Visibility: 10mi
Dew Point: 21°   Wind: 12mph
Humidity: 81%   Direction: 340°NNW
Pressure: 30.48"   Gusts: NA
Location:  44.5892°N, 97.2322°W
Report Text: KATY 310353Z AUTO 34010KT 10SM CLR M03/M06 A3048 RMK AO2 SLP340 T10331061
Loading
Personal Weather Stations






























Interactive Weather Map
Tropical Storm Tracking
New forecast layout! Learn more

10-Day Weather Forecast

Advertisements
Track Severe Weather on mobile